createdAt,value
2022-12-11T00:01:24.050Z,4.36
2022-12-11T00:03:51.168Z,4.40
2022-12-11T00:06:20.324Z,4.50
2022-12-11T00:08:47.789Z,4.43
2022-12-11T00:11:16.502Z,4.41
2022-12-11T00:13:43.474Z,4.44
2022-12-11T00:16:10.276Z,4.38
2022-12-11T00:18:36.853Z,4.40
2022-12-11T00:21:07.820Z,4.42
2022-12-11T00:23:35.818Z,4.35
2022-12-11T00:26:07.121Z,4.40
2022-12-11T00:28:33.757Z,4.33
2022-12-11T00:31:04.123Z,4.33
2022-12-11T00:33:30.678Z,4.25
2022-12-11T00:35:57.145Z,4.35
2022-12-11T00:38:24.080Z,4.32
2022-12-11T00:40:50.749Z,4.29
2022-12-11T00:43:17.479Z,4.28
2022-12-11T00:45:45.854Z,4.32
2022-12-11T00:48:13.279Z,4.28
2022-12-11T00:50:40.655Z,4.32
2022-12-11T00:53:07.826Z,4.23
2022-12-11T00:55:39.829Z,4.30
2022-12-11T00:58:06.904Z,4.25
2022-12-11T01:00:33.524Z,4.27
2022-12-11T01:03:00.120Z,4.32
2022-12-11T01:05:26.994Z,4.26
2022-12-11T01:07:53.537Z,4.21
2022-12-11T01:10:26.127Z,4.18
2022-12-11T01:13:11.686Z,4.14
2022-12-11T01:15:44.233Z,4.21
2022-12-11T01:18:15.449Z,4.24
2022-12-11T01:20:43.145Z,4.17
2022-12-11T01:23:13.031Z,4.10
2022-12-11T01:25:39.995Z,4.20
2022-12-11T01:28:06.997Z,4.14
2022-12-11T01:30:34.145Z,4.19
2022-12-11T01:33:01.058Z,4.15
2022-12-11T01:35:28.425Z,4.21
2022-12-11T01:37:54.989Z,4.13
2022-12-11T01:40:22.168Z,4.21
2022-12-11T01:42:49.241Z,4.14
2022-12-11T01:45:15.788Z,4.24
2022-12-11T01:47:42.355Z,4.11
2022-12-11T01:50:08.957Z,4.06
2022-12-11T01:52:36.390Z,4.08
2022-12-11T01:55:03.952Z,4.07
2022-12-11T01:57:30.510Z,4.13
2022-12-11T01:59:57.205Z,4.07
2022-12-11T02:02:30.873Z,4.05
2022-12-11T02:04:58.274Z,4.10
2022-12-11T02:07:24.852Z,4.04
2022-12-11T02:09:51.347Z,4.15
2022-12-11T02:12:36.382Z,4.12
2022-12-11T02:15:32.527Z,4.03
2022-12-11T02:18:17.304Z,4.05
2022-12-11T02:21:02.664Z,3.97
2022-12-11T02:24:00.361Z,4.06
2022-12-11T02:26:35.831Z,4.01
2022-12-11T02:29:08.077Z,4.06
2022-12-11T02:31:40.698Z,3.98
2022-12-11T02:34:30.671Z,3.99
2022-12-11T02:37:03.827Z,3.94
2022-12-11T02:39:32.143Z,3.93
2022-12-11T02:41:59.042Z,3.96
2022-12-11T02:44:29.435Z,3.93
2022-12-11T02:46:56.229Z,3.92
2022-12-11T02:49:24.364Z,3.86
2022-12-11T02:51:52.521Z,3.91
2022-12-11T02:54:28.132Z,3.97
2022-12-11T02:57:04.796Z,3.94
2022-12-11T02:59:35.821Z,3.88
2022-12-11T03:02:04.207Z,3.93
2022-12-11T03:04:31.771Z,3.88
2022-12-11T03:07:02.796Z,3.88
2022-12-11T03:09:29.307Z,3.92
2022-12-11T03:11:55.785Z,3.89
2022-12-11T03:14:22.236Z,3.94
2022-12-11T03:17:14.509Z,3.86
2022-12-11T03:19:47.109Z,3.84
2022-12-11T03:22:22.110Z,3.87
2022-12-11T03:25:12.788Z,3.85
2022-12-11T03:27:49.502Z,3.81
2022-12-11T03:30:21.001Z,3.83
2022-12-11T03:32:58.174Z,3.86
2022-12-11T03:35:56.619Z,3.91
2022-12-11T03:38:33.393Z,3.78
2022-12-11T03:41:03.277Z,3.85
2022-12-11T03:43:32.088Z,3.75
2022-12-11T03:46:00.606Z,3.77
2022-12-11T03:48:31.157Z,3.82
2022-12-11T03:50:59.343Z,3.77
2022-12-11T03:53:27.190Z,3.74
2022-12-11T03:55:56.127Z,3.77
2022-12-11T03:58:22.636Z,3.66
2022-12-11T04:00:49.100Z,3.76
2022-12-11T04:03:17.755Z,3.76
2022-12-11T04:05:56.211Z,3.69
2022-12-11T04:08:23.996Z,3.68
2022-12-11T04:11:14.408Z,3.69
2022-12-11T04:13:42.219Z,3.72
2022-12-11T04:16:12.093Z,3.66
2022-12-11T04:18:57.333Z,3.75
2022-12-11T04:21:42.358Z,3.76
2022-12-11T04:24:17.734Z,3.70
2022-12-11T04:26:46.858Z,3.68
2022-12-11T04:29:14.146Z,3.63
2022-12-11T04:31:40.722Z,3.63
2022-12-11T04:34:07.197Z,3.62
2022-12-11T04:36:33.671Z,3.57
2022-12-11T04:39:00.146Z,3.67
2022-12-11T04:41:26.711Z,3.61
2022-12-11T04:43:53.161Z,3.63
2022-12-11T04:46:22.101Z,3.59
2022-12-11T04:48:55.455Z,3.56
2022-12-11T04:51:24.256Z,3.54
2022-12-11T04:53:50.740Z,3.55
2022-12-11T04:56:17.216Z,3.50
2022-12-11T04:58:44.783Z,3.57
2022-12-11T05:01:13.889Z,3.49
2022-12-11T05:03:41.240Z,3.52
2022-12-11T05:06:09.382Z,3.54
2022-12-11T05:08:38.454Z,3.51
2022-12-11T05:11:07.202Z,3.44
2022-12-11T05:13:34.140Z,3.49
2022-12-11T05:16:00.631Z,3.46
2022-12-11T05:18:27.119Z,3.48
2022-12-11T05:21:01.207Z,3.42
2022-12-11T05:23:28.095Z,3.39
2022-12-11T05:25:55.794Z,3.36
2022-12-11T05:28:24.909Z,3.40
2022-12-11T05:31:02.749Z,3.39
2022-12-11T05:33:30.124Z,3.37
2022-12-11T05:35:56.556Z,3.35
2022-12-11T05:38:23.297Z,3.33
2022-12-11T05:41:04.675Z,3.33
2022-12-11T05:43:33.407Z,3.39
2022-12-11T05:46:08.183Z,3.41
2022-12-11T05:48:35.121Z,3.39
2022-12-11T05:51:02.482Z,3.37
2022-12-11T05:53:29.617Z,3.34
2022-12-11T05:56:02.291Z,3.37
2022-12-11T05:58:28.913Z,3.27
2022-12-11T06:00:55.366Z,3.27
2022-12-11T06:03:21.900Z,3.28
2022-12-11T06:05:48.403Z,3.22
2022-12-11T06:08:15.065Z,3.23
2022-12-11T06:10:49.239Z,3.20
2022-12-11T06:13:16.686Z,3.23
2022-12-11T06:15:43.241Z,3.24
2022-12-11T06:18:09.828Z,3.20
2022-12-11T06:20:37.074Z,3.26
2022-12-11T06:23:03.736Z,3.20
2022-12-11T06:25:30.787Z,3.19
2022-12-11T06:27:57.529Z,3.22
2022-12-11T06:30:24.149Z,3.18
2022-12-11T06:33:06.117Z,3.13
2022-12-11T06:35:35.134Z,3.04
2022-12-11T06:38:06.636Z,3.15
2022-12-11T06:40:33.119Z,3.10
2022-12-11T06:42:59.546Z,3.18
2022-12-11T06:45:25.980Z,3.05
2022-12-11T06:47:52.460Z,3.14
2022-12-11T06:50:18.979Z,3.12
2022-12-11T06:52:45.371Z,3.14
2022-12-11T06:55:12.109Z,3.09
2022-12-11T06:57:38.741Z,3.14
2022-12-11T07:00:05.844Z,3.10
2022-12-11T07:02:32.489Z,3.13
2022-12-11T07:04:59.143Z,3.04
2022-12-11T07:07:25.625Z,3.06
2022-12-11T07:09:52.085Z,3.08
2022-12-11T07:12:18.569Z,3.05
2022-12-11T07:14:45.560Z,3.02
2022-12-11T07:17:12.001Z,3.01
2022-12-11T07:19:38.539Z,3.01
2022-12-11T07:22:04.988Z,2.97
2022-12-11T07:24:31.437Z,3.00
2022-12-11T07:26:58.200Z,3.08
2022-12-11T07:29:24.639Z,3.02
2022-12-11T07:31:51.226Z,3.05
2022-12-11T07:34:17.803Z,3.03
2022-12-11T07:36:44.429Z,3.04
2022-12-11T07:39:12.414Z,3.03
2022-12-11T07:41:39.907Z,2.96
2022-12-11T07:44:06.333Z,3.03
2022-12-11T07:46:33.575Z,3.05
2022-12-11T07:49:01.806Z,3.13
2022-12-11T07:51:31.306Z,3.02
2022-12-11T07:54:06.512Z,3.01
2022-12-11T07:56:34.087Z,3.03
2022-12-11T07:59:02.334Z,3.07
2022-12-11T08:01:30.821Z,3.08
2022-12-11T08:03:57.789Z,3.00
2022-12-11T08:06:29.739Z,2.99
2022-12-11T08:09:01.128Z,3.09
2022-12-11T08:11:28.973Z,3.05
2022-12-11T08:13:55.545Z,3.04
2022-12-11T08:16:22.973Z,3.05
2022-12-11T08:18:49.591Z,3.10
2022-12-11T08:21:22.095Z,3.08
2022-12-11T08:23:49.570Z,3.09
2022-12-11T08:26:22.253Z,3.08
2022-12-11T08:28:48.917Z,3.13
2022-12-11T08:31:16.766Z,3.18
2022-12-11T08:33:44.343Z,3.21
2022-12-11T08:36:14.459Z,3.16
2022-12-11T08:38:41.242Z,3.18
2022-12-11T08:41:12.476Z,3.13
2022-12-11T08:43:39.779Z,3.22
2022-12-11T08:46:07.243Z,3.23
2022-12-11T08:48:35.386Z,3.23
2022-12-11T08:51:03.222Z,3.22
2022-12-11T08:53:30.441Z,3.21
2022-12-11T08:56:09.424Z,3.31
2022-12-11T08:58:36.039Z,3.34
2022-12-11T09:01:14.152Z,3.36
2022-12-11T09:03:41.500Z,3.42
2022-12-11T09:06:13.247Z,3.41
2022-12-11T09:08:40.256Z,3.44
2022-12-11T09:11:10.026Z,3.44
2022-12-11T09:13:37.150Z,3.50
2022-12-11T09:16:06.832Z,3.51
2022-12-11T09:18:33.549Z,3.48
2022-12-11T09:21:14.285Z,3.57
2022-12-11T09:23:41.574Z,3.56
2022-12-11T09:26:11.110Z,3.57
2022-12-11T09:28:41.365Z,3.54
2022-12-11T09:31:34.973Z,3.54
2022-12-11T09:36:52.104Z,3.63
2022-12-11T09:39:19.078Z,3.63
2022-12-11T09:42:07.275Z,3.63
2022-12-11T09:44:43.470Z,3.64
2022-12-11T09:47:30.874Z,3.68
2022-12-11T09:50:10.633Z,3.66
2022-12-11T09:53:05.394Z,3.69
2022-12-11T09:55:47.327Z,3.68
2022-12-11T09:58:30.118Z,3.67
2022-12-11T10:01:35.295Z,3.76
2022-12-11T10:04:38.814Z,3.79
2022-12-11T10:07:24.122Z,3.75
2022-12-11T10:10:07.854Z,3.81
2022-12-11T10:12:55.008Z,3.82
2022-12-11T10:15:36.885Z,3.85
2022-12-11T10:18:09.941Z,3.89
2022-12-11T10:20:40.223Z,3.86
2022-12-11T10:23:09.747Z,3.87
2022-12-11T10:25:42.062Z,3.94
2022-12-11T10:28:17.922Z,3.94
2022-12-11T10:31:09.848Z,3.94
2022-12-11T10:33:54.044Z,3.93
2022-12-11T10:36:34.771Z,3.99
2022-12-11T10:39:01.648Z,4.00
2022-12-11T10:41:41.801Z,4.04
2022-12-11T10:44:23.077Z,4.03
2022-12-11T10:47:11.315Z,4.06
2022-12-11T10:49:39.750Z,4.09
2022-12-11T10:52:12.453Z,4.09
2022-12-11T10:54:45.671Z,4.12
2022-12-11T10:57:13.967Z,4.10
2022-12-11T10:59:43.458Z,4.12
2022-12-11T11:02:26.672Z,4.12
2022-12-11T11:04:55.728Z,4.15
2022-12-11T11:07:25.392Z,4.15
2022-12-11T11:10:11.971Z,4.16
2022-12-11T11:12:39.444Z,4.23
2022-12-11T11:15:13.077Z,4.24
2022-12-11T11:17:55.135Z,4.23
2022-12-11T11:20:25.743Z,4.23
2022-12-11T11:22:59.082Z,4.28
2022-12-11T11:25:28.638Z,4.30
2022-12-11T11:27:58.080Z,4.29
2022-12-11T11:30:27.543Z,4.31
2022-12-11T11:33:05.630Z,4.35
2022-12-11T11:35:32.920Z,4.33
2022-12-11T11:38:12.824Z,4.35
2022-12-11T11:41:07.648Z,4.36
2022-12-11T11:43:42.793Z,4.39
2022-12-11T11:46:22.094Z,4.39
2022-12-11T11:48:48.601Z,4.38
2022-12-11T11:51:27.043Z,4.37
2022-12-11T11:53:58.286Z,4.42
2022-12-11T11:56:34.937Z,4.43
2022-12-11T11:59:23.213Z,4.42
2022-12-11T12:01:51.776Z,4.48
2022-12-11T12:04:18.263Z,4.49
2022-12-11T12:06:57.879Z,4.48
2022-12-11T12:09:52.211Z,4.49
2022-12-11T12:12:26.601Z,4.48
2022-12-11T12:14:57.827Z,4.57
2022-12-11T12:17:55.095Z,4.55
2022-12-11T12:20:41.168Z,4.62
2022-12-11T12:23:19.416Z,4.59
2022-12-11T12:25:55.903Z,4.59
2022-12-11T12:28:34.325Z,4.62
2022-12-11T12:31:25.274Z,4.67
2022-12-11T12:34:14.350Z,4.62
2022-12-11T12:36:46.510Z,4.70
2022-12-11T12:39:44.471Z,4.63
2022-12-11T12:42:28.708Z,4.70
2022-12-11T12:45:16.307Z,4.71
2022-12-11T12:47:50.341Z,4.82
2022-12-11T12:50:26.402Z,4.75
2022-12-11T12:52:55.220Z,4.70
2022-12-11T12:55:25.081Z,4.75
2022-12-11T12:57:57.712Z,4.71
2022-12-11T13:00:39.509Z,4.74
2022-12-11T13:03:21.166Z,4.74
2022-12-11T13:06:04.280Z,4.72
2022-12-11T13:08:50.093Z,4.77
2022-12-11T13:11:19.864Z,4.78
2022-12-11T13:14:02.528Z,4.78
2022-12-11T13:16:41.440Z,4.79
2022-12-11T13:19:25.996Z,4.73
2022-12-11T13:22:18.819Z,4.73
2022-12-11T13:24:52.125Z,4.72
2022-12-11T13:27:38.644Z,4.72
2022-12-11T13:30:21.218Z,4.73
2022-12-11T13:33:14.107Z,4.79
2022-12-11T13:35:40.737Z,4.73
2022-12-11T13:38:16.955Z,4.79
2022-12-11T13:40:45.364Z,4.80
2022-12-11T13:43:20.221Z,4.77
2022-12-11T13:45:56.068Z,4.71
2022-12-11T13:48:47.716Z,4.74
2022-12-11T13:51:21.824Z,4.76
2022-12-11T13:53:48.662Z,4.81
2022-12-11T13:56:22.505Z,4.83
2022-12-11T13:58:49.248Z,4.76
2022-12-11T14:01:17.670Z,4.74
2022-12-11T14:04:09.508Z,4.81
2022-12-11T14:06:38.894Z,4.76
2022-12-11T14:09:06.710Z,4.80
2022-12-11T14:11:40.158Z,4.77
2022-12-11T14:14:16.134Z,4.73
2022-12-11T14:16:42.671Z,4.67
2022-12-11T14:19:10.916Z,4.63
2022-12-11T14:21:37.412Z,4.72
2022-12-11T14:24:06.487Z,4.70
2022-12-11T14:26:37.790Z,4.61
2022-12-11T14:29:05.388Z,4.67
2022-12-11T14:31:39.588Z,4.62
2022-12-11T14:34:11.981Z,4.65
2022-12-11T14:36:41.231Z,4.64
2022-12-11T14:39:18.597Z,4.58
2022-12-11T14:42:09.012Z,4.63
2022-12-11T14:44:48.710Z,4.59
2022-12-11T14:47:42.647Z,4.56
2022-12-11T14:50:21.171Z,4.47
2022-12-11T14:52:55.491Z,4.54
2022-12-11T14:55:32.739Z,4.51
2022-12-11T14:58:02.852Z,4.48
2022-12-11T15:00:31.183Z,4.46
2022-12-11T15:03:03.879Z,4.41
2022-12-11T15:05:37.153Z,4.42
2022-12-11T15:08:09.910Z,4.44
2022-12-11T15:10:41.083Z,4.34
2022-12-11T15:13:09.283Z,4.26
2022-12-11T15:15:46.215Z,3.97
2022-12-11T15:18:24.851Z,4.20
2022-12-11T15:20:58.673Z,4.08
2022-12-11T15:23:25.760Z,3.89
2022-12-11T15:25:55.600Z,3.90
2022-12-11T15:28:32.181Z,3.99
2022-12-11T15:31:05.113Z,3.96
2022-12-11T15:33:34.528Z,4.03
2022-12-11T15:36:05.907Z,4.02
2022-12-11T15:38:35.680Z,3.99
2022-12-11T15:41:02.828Z,4.04
2022-12-11T15:43:33.800Z,3.93
2022-12-11T15:46:02.605Z,3.99
2022-12-11T15:48:29.184Z,3.92
2022-12-11T15:50:55.880Z,3.95
2022-12-11T15:53:22.585Z,3.91
2022-12-11T15:55:49.404Z,3.94
2022-12-11T15:58:19.535Z,3.85
2022-12-11T16:00:46.046Z,3.97
2022-12-11T16:03:14.550Z,3.82
2022-12-11T16:05:42.565Z,3.81
2022-12-11T16:08:15.078Z,3.82
2022-12-11T16:10:43.296Z,3.92
2022-12-11T16:13:10.652Z,3.92
2022-12-11T16:15:44.546Z,3.94
2022-12-11T16:18:13.543Z,3.91
2022-12-11T16:20:41.056Z,3.91
2022-12-11T16:23:07.814Z,3.84
2022-12-11T16:25:34.372Z,3.78
2022-12-11T16:28:01.626Z,3.81
2022-12-11T16:30:29.423Z,3.89
2022-12-11T16:32:56.255Z,3.87
2022-12-11T16:35:22.809Z,3.76
2022-12-11T16:37:53.912Z,3.68
2022-12-11T16:40:21.399Z,3.64
2022-12-11T16:42:49.278Z,3.67
2022-12-11T16:45:22.058Z,3.68
2022-12-11T16:47:49.449Z,3.64
2022-12-11T16:50:17.450Z,3.63
2022-12-11T16:52:44.450Z,3.52
2022-12-11T16:55:13.179Z,3.49
2022-12-11T16:57:40.579Z,3.57
2022-12-11T17:00:09.284Z,3.55
2022-12-11T17:02:36.540Z,3.47
2022-12-11T17:05:03.324Z,3.53
2022-12-11T17:07:31.704Z,3.62
2022-12-11T17:09:58.231Z,3.48
2022-12-11T17:12:27.673Z,3.40
2022-12-11T17:14:55.971Z,3.44
2022-12-11T17:17:22.463Z,3.49
2022-12-11T17:19:49.398Z,3.59
2022-12-11T17:22:15.866Z,3.50
2022-12-11T17:24:42.365Z,3.44
2022-12-11T17:27:08.910Z,3.47
2022-12-11T17:29:35.424Z,3.34
2022-12-11T17:32:03.293Z,3.47
2022-12-11T17:34:36.136Z,3.48
2022-12-11T17:37:04.733Z,3.40
2022-12-11T17:39:31.361Z,3.39
2022-12-11T17:41:57.890Z,3.43
2022-12-11T17:44:26.514Z,3.39
2022-12-11T17:46:53.252Z,3.42
2022-12-11T17:49:19.904Z,3.34
2022-12-11T17:51:46.501Z,3.41
2022-12-11T17:54:13.006Z,3.34
2022-12-11T17:56:40.493Z,3.30
2022-12-11T17:59:07.143Z,3.37
2022-12-11T18:01:33.885Z,3.34
2022-12-11T18:04:01.798Z,3.42
2022-12-11T18:06:29.284Z,3.37
2022-12-11T18:08:56.288Z,3.35
2022-12-11T18:11:23.871Z,3.39
2022-12-11T18:13:51.831Z,3.38
2022-12-11T18:16:25.883Z,3.31
2022-12-11T18:18:52.959Z,3.28
2022-12-11T18:21:25.479Z,3.27
2022-12-11T18:23:52.411Z,3.28
2022-12-11T18:26:19.827Z,3.29
2022-12-11T18:28:47.734Z,3.33
2022-12-11T18:31:14.426Z,3.34
2022-12-11T18:33:43.201Z,3.33
2022-12-11T18:36:10.150Z,3.27
2022-12-11T18:38:36.570Z,3.33
2022-12-11T18:41:04.428Z,3.28
2022-12-11T18:43:30.827Z,3.34
2022-12-11T18:45:57.353Z,3.32
2022-12-11T18:48:23.825Z,3.39
2022-12-11T18:50:51.439Z,3.40
2022-12-11T18:53:18.813Z,3.32
2022-12-11T18:55:47.219Z,3.27
2022-12-11T18:58:15.905Z,3.34
2022-12-11T19:00:43.502Z,3.32
2022-12-11T19:03:11.947Z,3.32
2022-12-11T19:05:42.262Z,3.25
2022-12-11T19:08:09.889Z,3.23
2022-12-11T19:10:42.620Z,3.25
2022-12-11T19:13:09.194Z,3.17
2022-12-11T19:15:39.578Z,3.14
2022-12-11T19:18:06.432Z,3.12
2022-12-11T19:21:03.160Z,3.10
2022-12-11T19:23:25.735Z,3.21
2022-12-11T19:25:52.266Z,3.13
2022-12-11T19:28:18.887Z,3.09
2022-12-11T19:30:47.422Z,3.09
2022-12-11T19:33:15.129Z,3.00
2022-12-11T19:35:42.643Z,3.07
2022-12-11T19:38:09.479Z,3.08
2022-12-11T19:40:44.279Z,3.00
2022-12-11T19:43:13.955Z,2.99
2022-12-11T19:45:43.459Z,3.03
2022-12-11T19:48:22.813Z,2.95
2022-12-11T19:50:56.628Z,2.97
2022-12-11T19:56:46.230Z,2.80
2022-12-11T19:59:32.735Z,2.83
2022-12-11T20:02:55.254Z,2.90
2022-12-11T20:07:02.381Z,2.86
2022-12-11T20:10:01.769Z,2.78
2022-12-11T20:13:32.421Z,2.74
2022-12-11T20:16:33.314Z,2.78
2022-12-11T20:19:23.449Z,2.94
2022-12-11T20:23:07.813Z,2.93
2022-12-11T20:25:34.480Z,2.95
2022-12-11T20:28:01.083Z,2.92
2022-12-11T20:30:31.683Z,2.92
2022-12-11T20:32:58.539Z,2.75
2022-12-11T20:35:58.430Z,2.77
2022-12-11T20:38:15.351Z,2.90
2022-12-11T20:40:46.331Z,3.01
2022-12-11T20:43:13.029Z,2.99
2022-12-11T20:45:42.009Z,2.84
2022-12-11T20:48:10.915Z,2.86
2022-12-11T20:51:03.185Z,2.89
2022-12-11T20:54:37.639Z,3.00
2022-12-11T20:57:55.117Z,2.92
2022-12-11T21:03:34.509Z,3.00
2022-12-11T21:06:04.349Z,3.00
2022-12-11T21:08:31.101Z,2.98
2022-12-11T21:10:57.730Z,2.94
2022-12-11T21:13:24.503Z,2.94
2022-12-11T21:16:05.967Z,2.89
2022-12-11T21:18:52.962Z,2.93
2022-12-11T21:24:03.592Z,2.80
2022-12-11T21:26:30.087Z,3.01
2022-12-11T21:28:59.017Z,2.98
2022-12-11T21:31:43.610Z,2.96
2022-12-11T21:34:23.567Z,3.00
2022-12-11T21:36:57.330Z,3.00
2022-12-11T21:39:25.648Z,2.92
2022-12-11T21:41:52.518Z,2.96
2022-12-11T21:47:10.259Z,2.98
2022-12-11T21:49:37.539Z,2.96
2022-12-11T21:52:04.693Z,2.91
2022-12-11T21:54:31.398Z,2.90
2022-12-11T21:56:58.242Z,2.93
2022-12-11T21:59:24.881Z,2.91
2022-12-11T22:01:51.481Z,2.88
2022-12-11T22:07:20.185Z,2.72
2022-12-11T22:09:46.671Z,2.62
2022-12-11T22:12:22.654Z,2.59
2022-12-11T22:14:49.465Z,2.54
2022-12-11T22:17:18.074Z,2.59
2022-12-11T22:19:45.395Z,2.45
2022-12-11T22:22:13.523Z,2.53
2022-12-11T22:24:41.037Z,2.46
2022-12-11T22:27:07.552Z,2.42
2022-12-11T22:29:34.812Z,2.23
2022-12-11T22:32:01.709Z,2.36
2022-12-11T22:34:28.164Z,2.35
2022-12-11T22:36:54.695Z,2.20
2022-12-11T22:39:21.132Z,2.26
2022-12-11T22:41:47.579Z,2.02
2022-12-11T22:44:16.478Z,2.05
2022-12-11T22:46:46.827Z,1.88
2022-12-11T22:49:16.448Z,2.06
2022-12-11T22:51:42.995Z,1.89
2022-12-11T22:54:09.596Z,2.00
2022-12-11T22:56:36.164Z,2.04
2022-12-11T22:59:02.713Z,1.95
2022-12-11T23:01:29.315Z,1.74
2022-12-11T23:03:55.847Z,1.74
2022-12-11T23:06:24.738Z,1.83
2022-12-11T23:08:52.585Z,1.69
2022-12-11T23:11:28.162Z,1.51
2022-12-11T23:13:55.520Z,1.57
2022-12-11T23:16:23.809Z,1.43
2022-12-11T23:18:50.701Z,1.32
2022-12-11T23:21:17.190Z,0.98
2022-12-11T23:23:43.782Z,1.07
2022-12-11T23:26:12.945Z,1.17
2022-12-11T23:28:40.502Z,1.04
2022-12-11T23:31:08.178Z,1.05
2022-12-11T23:33:34.792Z,1.12
2022-12-11T23:36:01.299Z,0.95
2022-12-11T23:38:27.792Z,0.79
2022-12-11T23:40:55.164Z,0.42
2022-12-11T23:43:22.259Z,0.99
2022-12-11T23:45:48.924Z,0.88
2022-12-11T23:48:15.555Z,0.87
2022-12-11T23:50:43.770Z,1.00
2022-12-11T23:53:10.841Z,0.83
2022-12-11T23:55:42.437Z,0.43
2022-12-11T23:58:10.575Z,0.56
